Time;durP1;ratioP1;P1;durP2;ratioP2;P2;SDS_P1;SDS_P2;PMS_P1;PMS_P2;Temp;Humidity;BMP_temperature;BMP_pressure;BME280_temperature;BME280_humidity;BME280_pressure;Samples;Min_cycle;Max_cycle;Signal;HPM_P1;HPM_P2
2021/06/10 00:00:53;;;;;;;20.93;18.83;;;15.20;99.90;;;;;;4908470;29;20655;-95
2021/06/10 00:03:34;;;;;;;19.10;17.27;;;15.20;99.90;;;;;;4909027;29;20464;-95
2021/06/10 00:06:03;;;;;;;19.80;18.00;;;15.20;99.90;;;;;;4916592;29;20807;-96
2021/06/10 00:08:28;;;;;;;19.00;17.20;;;15.10;99.90;;;;;;4917535;29;20440;-96
2021/06/10 00:10:57;;;;;;;19.33;17.37;;;15.10;99.90;;;;;;4915072;29;20555;-96
2021/06/10 00:16:10;;;;;;;19.60;17.80;;;15.10;99.90;;;;;;4910736;28;20483;-96
2021/06/10 00:18:36;;;;;;;18.10;16.27;;;15.10;99.90;;;;;;4913217;29;21534;-96
2021/06/10 00:21:01;;;;;;;17.93;16.17;;;15.10;99.90;;;;;;4911920;29;20188;-96
2021/06/10 00:23:27;;;;;;;18.13;16.40;;;15.20;99.90;;;;;;4897380;29;20345;-96
2021/06/10 00:25:53;;;;;;;19.47;17.67;;;15.10;99.90;;;;;;4919198;29;20194;-96
2021/06/10 00:28:18;;;;;;;18.93;17.10;;;15.10;99.90;;;;;;4909382;29;20200;-95
2021/06/10 00:30:44;;;;;;;19.63;17.57;;;15.00;99.90;;;;;;4910109;29;20198;-95
2021/06/10 00:33:10;;;;;;;18.77;16.87;;;15.00;99.90;;;;;;4905322;29;20223;-95
2021/06/10 00:35:37;;;;;;;18.90;17.03;;;14.90;99.90;;;;;;4909634;29;20224;-95
2021/06/10 00:38:03;;;;;;;19.37;17.57;;;14.90;99.90;;;;;;4907051;29;20528;-96
2021/06/10 00:40:31;;;;;;;17.57;15.80;;;14.80;99.90;;;;;;4901417;29;20619;-96
2021/06/10 00:43:00;;;;;;;19.70;17.80;;;14.90;99.90;;;;;;4910990;29;20450;-96
2021/06/10 00:45:34;;;;;;;18.07;16.40;;;14.90;99.90;;;;;;4924664;29;20559;-96
2021/06/10 00:48:00;;;;;;;19.63;17.33;;;14.90;99.90;;;;;;4919629;29;20444;-96
2021/06/10 00:50:35;;;;;;;18.03;16.13;;;15.00;99.90;;;;;;4918165;29;20471;-96
2021/06/10 00:53:01;;;;;;;18.77;16.87;;;15.00;99.90;;;;;;4919490;29;20513;-96
2021/06/10 00:55:27;;;;;;;18.47;16.80;;;14.90;99.90;;;;;;4912866;29;20477;-96
2021/06/10 00:57:58;;;;;;;16.90;15.30;;;15.00;99.90;;;;;;4913307;29;20546;-96
2021/06/10 01:00:27;;;;;;;17.73;15.83;;;15.00;99.90;;;;;;4914569;29;20252;-96
2021/06/10 01:03:03;;;;;;;17.97;16.10;;;14.90;99.90;;;;;;4912270;29;20472;-96
2021/06/10 01:05:29;;;;;;;15.70;14.33;;;14.90;99.90;;;;;;4906544;29;20468;-95
2021/06/10 01:08:15;;;;;;;17.90;16.07;;;14.80;99.90;;;;;;4908058;29;20451;-96
2021/06/10 01:10:56;;;;;;;15.87;14.37;;;14.80;99.90;;;;;;4904271;28;20527;-96
2021/06/10 01:14:00;;;;;;;16.80;15.27;;;14.70;99.90;;;;;;4911213;29;20462;-96
2021/06/10 01:16:30;;;;;;;15.93;14.37;;;14.70;99.90;;;;;;4918035;29;20506;-96
2021/06/10 01:19:10;;;;;;;18.17;16.23;;;14.60;99.90;;;;;;4914373;29;20440;-96
2021/06/10 01:21:42;;;;;;;16.93;15.30;;;14.60;99.90;;;;;;4915697;29;20471;-96
2021/06/10 01:24:39;;;;;;;17.57;15.97;;;14.60;99.90;;;;;;4916113;29;20930;-96
2021/06/10 01:27:39;;;;;;;16.80;15.10;;;14.60;99.90;;;;;;4911443;29;20459;-96
2021/06/10 01:30:14;;;;;;;17.07;14.90;;;14.70;99.90;;;;;;4912436;29;20719;-96
2021/06/10 01:32:47;;;;;;;15.63;14.17;;;14.70;99.90;;;;;;4914068;29;20458;-96
2021/06/10 01:35:19;;;;;;;15.93;14.40;;;14.70;99.90;;;;;;4918448;29;20452;-96
2021/06/10 01:37:51;;;;;;;16.33;14.80;;;14.70;99.90;;;;;;4915572;29;20463;-96
2021/06/10 01:40:20;;;;;;;16.23;14.63;;;14.60;99.90;;;;;;4914421;28;21044;-96
2021/06/10 01:42:46;;;;;;;16.60;15.10;;;14.50;99.90;;;;;;4913986;29;20456;-95
2021/06/10 01:45:16;;;;;;;15.63;14.23;;;14.50;99.90;;;;;;4910588;29;20449;-96
2021/06/10 01:47:52;;;;;;;16.77;15.13;;;14.50;99.90;;;;;;4910662;29;20460;-96
2021/06/10 01:50:20;;;;;;;15.73;14.03;;;14.50;99.90;;;;;;4908863;29;20546;-96
2021/06/10 01:52:48;;;;;;;15.20;13.83;;;14.50;99.90;;;;;;4911432;29;20511;-96
2021/06/10 01:55:19;;;;;;;16.93;15.33;;;14.50;99.90;;;;;;4921783;29;20623;-96
2021/06/10 01:57:47;;;;;;;16.00;14.60;;;14.50;99.90;;;;;;4907839;29;20488;-96
2021/06/10 02:00:18;;;;;;;17.30;15.80;;;14.60;99.90;;;;;;4908529;29;20460;-95
2021/06/10 02:03:05;;;;;;;17.17;15.37;;;14.50;99.90;;;;;;4907823;29;20459;-96
2021/06/10 02:05:31;;;;;;;17.20;15.70;;;14.50;99.90;;;;;;4908529;29;20456;-96
2021/06/10 02:10:30;;;;;;;18.83;17.07;;;14.50;99.90;;;;;;4911985;29;20532;-96
2021/06/10 02:12:58;;;;;;;17.40;15.80;;;14.50;99.90;;;;;;4909479;29;20457;-96
2021/06/10 02:15:26;;;;;;;16.17;14.63;;;14.50;99.90;;;;;;4910093;29;20452;-96
2021/06/10 02:17:55;;;;;;;18.00;16.20;;;14.40;99.90;;;;;;4914831;29;20455;-96
2021/06/10 02:20:21;;;;;;;16.73;14.90;;;14.40;99.90;;;;;;4919667;29;20435;-96
2021/06/10 02:22:48;;;;;;;20.17;18.07;;;14.50;99.90;;;;;;4919672;29;20547;-94
2021/06/10 02:25:13;;;;;;;31.50;19.70;;;14.40;99.90;;;;;;4940819;29;20443;-96
2021/06/10 02:27:40;;;;;;;22.17;18.93;;;14.40;99.90;;;;;;4925447;29;20452;-96
2021/06/10 02:30:08;;;;;;;23.20;19.80;;;14.30;99.90;;;;;;4903019;29;20189;-96
2021/06/10 02:32:34;;;;;;;33.47;19.77;;;14.20;99.90;;;;;;4909221;29;20448;-96
2021/06/10 02:35:05;;;;;;;21.37;17.93;;;14.20;99.90;;;;;;4909900;29;20448;-96
2021/06/10 02:37:31;;;;;;;19.27;17.27;;;14.10;99.90;;;;;;4911922;29;20487;-96
2021/06/10 02:39:58;;;;;;;15.87;14.43;;;14.10;99.90;;;;;;4913559;29;20449;-96
2021/06/10 02:42:26;;;;;;;15.47;14.00;;;14.10;99.90;;;;;;4916459;29;20459;-96
2021/06/10 02:44:53;;;;;;;20.30;15.47;;;14.10;99.90;;;;;;4909977;29;20452;-95
2021/06/10 02:47:21;;;;;;;30.07;15.57;;;14.10;99.90;;;;;;4909141;29;20524;-96
2021/06/10 02:49:49;;;;;;;17.77;15.90;;;14.00;99.90;;;;;;4908423;29;20444;-96
2021/06/10 02:52:28;;;;;;;16.93;15.07;;;13.90;99.90;;;;;;4907218;29;20815;-96
2021/06/10 02:54:57;;;;;;;20.10;15.17;;;13.90;99.90;;;;;;4907635;29;20487;-96
2021/06/10 02:57:25;;;;;;;15.60;13.83;;;13.80;99.90;;;;;;4915521;29;20484;-96
2021/06/10 02:59:52;;;;;;;15.70;14.20;;;13.80;99.90;;;;;;4907598;29;20442;-95
2021/06/10 03:02:19;;;;;;;16.37;14.77;;;13.80;99.90;;;;;;4909397;29;20464;-95
2021/06/10 03:04:46;;;;;;;16.63;15.00;;;13.80;99.90;;;;;;4904044;29;20460;-96
2021/06/10 03:07:15;;;;;;;15.97;14.43;;;13.80;99.90;;;;;;4908315;29;20938;-96
2021/06/10 03:09:43;;;;;;;24.27;16.40;;;13.80;99.90;;;;;;4912193;29;20922;-96
2021/06/10 03:12:12;;;;;;;16.40;14.70;;;13.80;99.90;;;;;;4940481;29;20447;-96
2021/06/10 03:14:40;;;;;;;19.90;15.40;;;13.70;99.90;;;;;;4935988;29;20443;-96
2021/06/10 03:17:06;;;;;;;18.80;15.90;;;13.60;99.90;;;;;;4941692;29;20487;-96
2021/06/10 03:19:32;;;;;;;19.67;15.67;;;13.70;99.90;;;;;;4937394;29;20486;-96
2021/06/10 03:21:57;;;;;;;16.00;14.40;;;13.70;99.90;;;;;;4934615;29;20471;-95
2021/06/10 03:24:26;;;;;;;18.23;16.37;;;13.80;99.90;;;;;;4932634;29;20451;-96
2021/06/10 03:26:54;;;;;;;24.37;17.83;;;13.80;99.90;;;;;;4944329;28;20172;-95
2021/06/10 03:29:20;;;;;;;17.43;15.63;;;13.90;99.90;;;;;;4948557;29;20444;-96
2021/06/10 03:31:50;;;;;;;25.20;16.23;;;13.80;99.90;;;;;;4939924;29;20462;-96
2021/06/10 03:34:18;;;;;;;44.57;17.93;;;13.80;99.90;;;;;;4917220;29;20439;-96
2021/06/10 03:36:44;;;;;;;60.87;17.87;;;13.70;99.90;;;;;;4901763;29;20893;-96
2021/06/10 03:39:10;;;;;;;39.17;16.20;;;13.50;99.90;;;;;;4914181;29;20508;-96
2021/06/10 03:41:36;;;;;;;34.30;15.90;;;13.60;99.90;;;;;;4913689;29;20448;-95
2021/06/10 03:44:02;;;;;;;48.83;17.20;;;13.50;99.90;;;;;;4914735;29;20863;-96
2021/06/10 03:46:29;;;;;;;57.13;18.50;;;13.50;99.90;;;;;;4915405;29;20448;-95
2021/06/10 03:48:55;;;;;;;24.73;16.90;;;13.40;99.90;;;;;;4915074;28;20972;-96
2021/06/10 03:51:21;;;;;;;86.43;18.53;;;13.50;99.90;;;;;;4916584;29;20530;-96
2021/06/10 03:53:49;;;;;;;70.23;18.60;;;13.50;99.90;;;;;;4918614;29;20551;-95
2021/06/10 03:56:16;;;;;;;27.13;15.80;;;13.40;99.90;;;;;;4932491;29;20737;-96
2021/06/10 03:58:41;;;;;;;58.93;19.67;;;13.50;99.90;;;;;;4943100;29;20466;-96
2021/06/10 04:01:07;;;;;;;69.23;19.17;;;13.60;99.90;;;;;;4942660;29;20441;-96
2021/06/10 04:03:33;;;;;;;30.17;17.67;;;13.60;99.90;;;;;;4942437;29;20221;-96
2021/06/10 04:06:00;;;;;;;56.83;17.63;;;13.60;99.90;;;;;;4941020;29;20232;-96
2021/06/10 04:08:25;;;;;;;34.20;17.07;;;13.70;99.90;;;;;;4949811;29;20223;-95
2021/06/10 04:10:51;;;;;;;47.53;17.50;;;13.70;99.90;;;;;;4933917;29;20435;-96
2021/06/10 04:13:17;;;;;;;60.60;17.80;;;13.70;99.90;;;;;;4936027;29;20262;-96
2021/06/10 04:15:42;;;;;;;17.07;15.37;;;13.70;99.90;;;;;;4932021;29;20832;-96
2021/06/10 04:18:08;;;;;;;31.10;14.93;;;13.80;99.90;;;;;;4942387;29;20649;-95
2021/06/10 04:20:34;;;;;;;31.33;15.37;;;13.90;99.90;;;;;;4936298;29;20201;-96
2021/06/10 04:23:02;;;;;;;54.07;15.90;;;13.90;99.90;;;;;;4932803;29;21647;-96
2021/06/10 04:25:28;;;;;;;30.60;14.67;;;13.90;99.90;;;;;;4935942;28;20476;-96
2021/06/10 04:27:54;;;;;;;40.57;16.40;;;13.90;99.90;;;;;;4931371;29;20370;-94
2021/06/10 04:30:20;;;;;;;67.53;16.53;;;13.90;99.90;;;;;;4942440;29;20248;-95
2021/06/10 04:32:46;;;;;;;39.87;15.47;;;13.90;99.90;;;;;;4937208;29;20201;-95
2021/06/10 04:35:14;;;;;;;86.07;18.73;;;13.90;99.90;;;;;;4935581;29;20463;-93
2021/06/10 04:37:40;;;;;;;30.07;13.37;;;13.90;99.90;;;;;;4936446;29;20554;-96
2021/06/10 04:40:06;;;;;;;16.60;14.43;;;13.90;99.90;;;;;;4938759;29;21113;-96
2021/06/10 04:42:35;;;;;;;50.17;16.50;;;13.80;99.90;;;;;;4933180;29;20471;-94
2021/06/10 04:45:00;;;;;;;111.50;18.10;;;13.90;99.90;;;;;;4944592;29;20458;-95
2021/06/10 04:47:26;;;;;;;65.37;17.37;;;14.00;99.90;;;;;;4939049;29;20445;-95
2021/06/10 04:49:52;;;;;;;38.87;16.03;;;13.90;99.90;;;;;;4934402;29;20270;-96
2021/06/10 04:52:17;;;;;;;108.00;17.73;;;14.10;99.90;;;;;;4943721;29;20207;-96
2021/06/10 04:54:43;;;;;;;111.40;19.40;;;14.00;99.90;;;;;;4938522;29;20192;-96
2021/06/10 04:57:08;;;;;;;33.23;16.63;;;14.10;99.90;;;;;;4940205;29;20238;-95
2021/06/10 04:59:37;;;;;;;40.70;18.53;;;14.20;99.90;;;;;;4943541;29;20208;-96
2021/06/10 05:02:04;;;;;;;53.57;19.37;;;14.20;99.90;;;;;;4944558;29;20202;-95
2021/06/10 05:04:33;;;;;;;62.97;18.67;;;14.20;99.90;;;;;;4938987;29;20479;-96
2021/06/10 05:07:05;;;;;;;25.40;15.90;;;14.10;99.90;;;;;;4936682;29;20431;-95
2021/06/10 05:09:30;;;;;;;17.10;15.23;;;14.10;99.90;;;;;;4939432;29;20450;-95
2021/06/10 05:11:56;;;;;;;25.27;14.20;;;14.30;99.90;;;;;;4944013;29;20522;-95
2021/06/10 05:14:21;;;;;;;19.27;14.43;;;14.30;99.90;;;;;;4945388;29;20193;-96
2021/06/10 05:16:49;;;;;;;27.70;12.20;;;14.30;99.90;;;;;;4938431;29;20251;-96
2021/06/10 05:19:16;;;;;;;19.43;15.43;;;14.30;99.90;;;;;;4940908;29;20274;-96
2021/06/10 05:21:41;;;;;;;20.37;17.23;;;14.30;99.90;;;;;;4937249;29;20455;-95
2021/06/10 05:24:12;;;;;;;19.67;17.77;;;14.40;99.90;;;;;;4935397;28;20452;-96
2021/06/10 05:26:38;;;;;;;16.30;14.80;;;14.50;99.90;;;;;;4935672;29;20193;-96
2021/06/10 05:29:04;;;;;;;15.40;13.93;;;14.50;99.90;;;;;;4938981;29;20459;-95
2021/06/10 05:31:34;;;;;;;15.50;14.10;;;14.50;99.90;;;;;;4941140;29;20207;-96
2021/06/10 05:34:00;;;;;;;16.00;14.50;;;14.60;99.90;;;;;;4938713;29;20238;-96
2021/06/10 05:36:26;;;;;;;16.80;15.20;;;14.60;99.90;;;;;;4944690;29;20483;-95
2021/06/10 05:38:51;;;;;;;16.83;15.33;;;14.70;99.90;;;;;;4935341;29;20192;-96
2021/06/10 05:41:17;;;;;;;16.80;15.30;;;14.80;99.90;;;;;;4932365;29;20275;-95
2021/06/10 05:43:43;;;;;;;15.90;14.40;;;14.80;99.90;;;;;;4934620;29;20239;-95
2021/06/10 05:46:09;;;;;;;21.50;15.97;;;14.80;99.90;;;;;;4928217;29;20255;-95
2021/06/10 05:48:34;;;;;;;15.50;14.10;;;15.10;99.90;;;;;;4930150;29;20286;-96
2021/06/10 05:51:00;;;;;;;25.30;16.80;;;15.30;99.90;;;;;;4935230;29;20192;-95
2021/06/10 05:53:26;;;;;;;86.57;28.27;;;15.30;99.90;;;;;;4936037;29;20192;-94
2021/06/10 05:55:52;;;;;;;16.83;15.33;;;15.40;99.90;;;;;;4931233;29;20275;-96
2021/06/10 05:58:18;;;;;;;18.73;16.60;;;15.60;99.90;;;;;;4939643;29;20466;-96
2021/06/10 06:00:44;;;;;;;88.43;23.73;;;15.70;99.90;;;;;;4939283;29;20196;-96
2021/06/10 06:03:10;;;;;;;22.57;18.53;;;15.90;99.90;;;;;;4941954;29;20475;-96
2021/06/10 06:05:36;;;;;;;15.37;13.97;;;16.10;99.90;;;;;;4940491;29;21062;-96
2021/06/10 06:08:02;;;;;;;37.27;20.77;;;16.20;99.90;;;;;;4941508;29;20514;-95
2021/06/10 06:10:29;;;;;;;15.83;14.43;;;16.10;99.90;;;;;;4931825;29;20520;-96
2021/06/10 06:13:00;;;;;;;36.60;20.10;;;16.10;99.90;;;;;;4934698;29;20466;-96
2021/06/10 06:15:26;;;;;;;21.83;16.00;;;16.00;99.90;;;;;;4937380;29;20431;-96
2021/06/10 06:17:53;;;;;;;16.70;15.20;;;16.10;99.90;;;;;;4944635;29;20445;-96
2021/06/10 06:20:21;;;;;;;16.80;15.30;;;16.20;99.90;;;;;;4943350;29;20461;-95
2021/06/10 06:22:50;;;;;;;17.80;15.23;;;16.20;99.90;;;;;;4941413;29;20420;-96
2021/06/10 06:25:18;;;;;;;16.33;14.93;;;16.30;99.90;;;;;;4947666;28;20445;-96
2021/06/10 06:45:51;;;;;;;17.60;15.80;;;16.80;99.90;;;;;;4916107;28;20508;-96
2021/06/10 06:48:21;;;;;;;15.43;14.13;;;17.00;99.90;;;;;;4924355;29;20536;-96
2021/06/10 06:50:47;;;;;;;16.23;14.77;;;17.00;99.90;;;;;;4910372;29;20440;-93
2021/06/10 06:53:13;;;;;;;14.90;13.60;;;17.10;99.90;;;;;;4903264;28;20514;-96
2021/06/10 06:55:38;;;;;;;15.73;14.33;;;17.20;99.90;;;;;;4910869;29;20491;-95
2021/06/10 06:58:04;;;;;;;15.27;13.97;;;17.40;99.90;;;;;;4910111;29;20188;-95
2021/06/10 07:00:31;;;;;;;16.17;14.77;;;17.40;99.90;;;;;;4903785;29;20231;-95
2021/06/10 07:02:56;;;;;;;16.23;14.77;;;17.60;99.90;;;;;;4907321;29;20195;-94
2021/06/10 07:05:22;;;;;;;14.50;13.30;;;17.70;99.90;;;;;;4909013;29;20437;-95
2021/06/10 07:07:48;;;;;;;13.50;12.30;;;17.80;99.90;;;;;;4912014;29;20208;-96
2021/06/10 07:10:14;;;;;;;14.27;12.77;;;18.10;99.90;;;;;;4917410;29;20256;-94
2021/06/10 07:12:40;;;;;;;13.53;12.37;;;18.30;99.90;;;;;;4908204;29;20259;-93
2021/06/10 07:15:08;;;;;;;14.43;13.23;;;18.50;99.90;;;;;;4917847;29;20524;-96
2021/06/10 07:17:36;;;;;;;13.10;12.00;;;18.40;99.90;;;;;;4911805;29;20224;-96
2021/06/10 07:20:03;;;;;;;14.60;13.30;;;18.60;99.90;;;;;;4933300;29;20428;-96
2021/06/10 07:22:30;;;;;;;14.50;13.30;;;18.60;99.90;;;;;;4936237;29;20472;-96
2021/06/10 07:25:00;;;;;;;13.90;12.70;;;18.70;99.90;;;;;;4917528;29;20463;-96
2021/06/10 07:27:28;;;;;;;13.63;12.53;;;18.50;99.90;;;;;;4913707;29;20540;-95
2021/06/10 07:29:55;;;;;;;13.67;12.47;;;18.80;99.90;;;;;;4908066;29;20452;-93
2021/06/10 07:32:21;;;;;;;14.17;12.87;;;19.10;99.90;;;;;;4902903;29;20464;-96
2021/06/10 07:34:47;;;;;;;13.97;12.73;;;19.30;99.90;;;;;;4904890;29;20468;-95
2021/06/10 07:37:13;;;;;;;12.90;11.80;;;19.40;99.90;;;;;;4899122;29;20595;-94
2021/06/10 07:39:40;;;;;;;13.90;12.80;;;19.40;99.90;;;;;;4903696;29;20440;-95
2021/06/10 07:42:06;;;;;;;14.27;12.97;;;19.40;99.90;;;;;;4916291;29;20188;-95
2021/06/10 07:44:32;;;;;;;13.53;12.33;;;19.20;99.90;;;;;;4907328;29;20460;-96
2021/06/10 07:47:00;;;;;;;13.50;12.40;;;19.40;99.90;;;;;;4915142;29;20450;-94
2021/06/10 07:49:26;;;;;;;13.00;11.90;;;19.80;99.90;;;;;;4912433;29;20191;-95
2021/06/10 07:51:52;;;;;;;13.60;12.50;;;20.00;99.90;;;;;;4908748;29;22061;-96
2021/06/10 07:54:18;;;;;;;13.90;12.60;;;20.00;99.90;;;;;;4932087;29;20454;-96
2021/06/10 07:56:44;;;;;;;12.60;11.50;;;20.30;99.90;;;;;;4929762;29;20219;-95
2021/06/10 07:59:10;;;;;;;12.63;11.63;;;20.40;99.90;;;;;;4921478;29;20189;-96
2021/06/10 08:01:39;;;;;;;12.40;11.50;;;20.70;99.90;;;;;;4922389;29;20444;-93
2021/06/10 08:04:05;;;;;;;12.97;11.67;;;20.90;99.90;;;;;;4907814;29;21049;-94
2021/06/10 08:06:34;;;;;;;12.47;11.47;;;21.10;99.90;;;;;;4909915;29;20468;-96
2021/06/10 08:08:59;;;;;;;12.23;11.33;;;21.20;99.90;;;;;;4923617;29;20234;-96
2021/06/10 08:11:25;;;;;;;10.60;9.80;;;21.30;99.90;;;;;;4920778;29;20455;-95
2021/06/10 08:13:51;;;;;;;11.67;10.77;;;21.30;99.90;;;;;;4923656;29;20282;-96
2021/06/10 08:16:17;;;;;;;12.90;11.77;;;21.50;99.90;;;;;;4921936;29;20220;-95
2021/06/10 08:18:42;;;;;;;12.40;11.40;;;21.60;99.90;;;;;;4919693;29;20188;-96
2021/06/10 08:21:08;;;;;;;12.40;11.30;;;21.50;99.90;;;;;;4933986;29;20212;-96
2021/06/10 08:23:34;;;;;;;13.10;12.10;;;21.30;99.90;;;;;;4935808;29;20228;-96
2021/06/10 08:26:03;;;;;;;12.37;11.40;;;21.20;99.90;;;;;;4926687;29;20188;-96
2021/06/10 08:28:30;;;;;;;12.43;11.43;;;21.30;99.90;;;;;;4927432;29;20200;-96
2021/06/10 08:30:56;;;;;;;12.50;11.40;;;21.30;99.90;;;;;;4931260;29;20490;-95
2021/06/10 08:33:23;;;;;;;11.27;10.47;;;21.30;99.90;;;;;;4928533;29;20532;-96
2021/06/10 08:35:52;;;;;;;11.47;10.57;;;21.60;99.90;;;;;;4930557;29;20466;-96
2021/06/10 08:38:57;;;;;;;;;;;;;;;;;;;;;
2021/06/10 08:41:39;;;;;;;;;;;;;;;;;;;;;
2021/06/10 08:44:29;;;;;;;10.87;10.07;;;22.30;99.90;;;;;;4938657;29;20515;-96
2021/06/10 08:46:57;;;;;;;19.93;10.07;;;22.60;99.90;;;;;;4929378;29;20489;-96
2021/06/10 08:49:24;;;;;;;10.90;10.00;;;22.70;99.90;;;;;;4923803;29;21163;-96
2021/06/10 08:51:53;;;;;;;10.63;9.90;;;22.70;99.90;;;;;;4927205;29;20582;-96
2021/06/10 08:54:19;;;;;;;10.73;9.90;;;22.80;99.90;;;;;;4919647;29;20569;-96
2021/06/10 08:56:46;;;;;;;10.17;9.37;;;22.80;99.90;;;;;;4913382;29;20582;-96
2021/06/10 08:59:12;;;;;;;9.63;8.90;;;22.90;99.90;;;;;;4914466;29;20196;-95
2021/06/10 09:01:38;;;;;;;10.37;9.57;;;23.00;99.90;;;;;;4909984;29;20466;-95
2021/06/10 09:04:04;;;;;;;10.77;9.97;;;23.20;99.90;;;;;;4943863;29;20215;-95
2021/06/10 09:06:49;;;;;;;11.10;10.20;;;22.50;99.90;;;;;;4931843;29;20514;-96
2021/06/10 09:09:32;;;;;;;11.17;10.17;;;22.40;99.90;;;;;;4937030;29;20463;-95
2021/06/10 09:12:06;;;;;;;10.80;10.00;;;22.30;99.90;;;;;;4920801;29;20456;-96
2021/06/10 09:15:03;;;;;;;12.53;11.63;;;22.40;99.90;;;;;;4949105;29;20460;-96
2021/06/10 09:17:34;;;;;;;13.40;12.20;;;22.20;99.90;;;;;;4942920;29;20858;-96
2021/06/10 09:20:46;;;;;;;11.37;10.53;;;22.30;99.90;;;;;;4919607;29;20452;-96
2021/06/10 09:23:24;;;;;;;11.10;10.10;;;22.70;99.90;;;;;;4923473;29;20455;-96
2021/06/10 09:26:04;;;;;;;11.53;10.70;;;23.00;99.90;;;;;;4927283;29;20429;-95
2021/06/10 09:28:38;;;;;;;12.17;11.37;;;23.40;99.90;;;;;;4926077;29;20471;-96
2021/06/10 09:31:09;;;;;;;12.40;11.40;;;23.70;99.90;;;;;;4914309;29;20491;-96
2021/06/10 09:33:46;;;;;;;12.17;11.27;;;23.60;99.90;;;;;;4920383;29;20448;-96
2021/06/10 09:36:16;;;;;;;12.23;11.23;;;23.50;99.90;;;;;;4913897;29;20590;-96
2021/06/10 09:39:08;;;;;;;11.03;10.13;;;23.60;99.90;;;;;;4912070;29;20553;-96
2021/06/10 09:41:54;;;;;;;12.40;11.30;;;24.00;99.90;;;;;;4920532;29;20440;-95
2021/06/10 09:47:47;;;;;;;12.47;11.57;;;24.80;99.90;;;;;;4935964;29;20465;-96
2021/06/10 09:50:55;;;;;;;12.80;11.80;;;25.40;99.90;;;;;;4927110;29;20457;-96
2021/06/10 09:53:33;;;;;;;11.97;10.97;;;25.40;99.90;;;;;;4928244;29;20456;-96
2021/06/10 09:56:12;;;;;;;12.60;11.70;;;25.20;99.90;;;;;;4920003;29;20504;-96
2021/06/10 09:58:41;;;;;;;12.17;11.27;;;24.80;99.90;;;;;;4914224;29;20509;-96
2021/06/10 10:01:27;;;;;;;11.53;10.77;;;24.40;99.90;;;;;;4924350;29;20524;-96
2021/06/10 10:04:01;;;;;;;12.47;11.47;;;24.00;99.90;;;;;;4942185;28;20471;-96
2021/06/10 10:06:34;;;;;;;11.63;10.80;;;23.30;99.90;;;;;;4918843;29;20437;-96
2021/06/10 10:09:03;;;;;;;11.87;11.07;;;23.20;99.90;;;;;;4895033;29;20467;-95
2021/06/10 10:14:14;;;;;;;11.50;10.70;;;23.00;99.90;;;;;;4916074;29;20564;-96
2021/06/10 10:16:41;;;;;;;12.00;11.10;;;23.00;99.90;;;;;;4902197;29;20502;-96
2021/06/10 10:19:07;;;;;;;12.30;11.40;;;23.00;99.90;;;;;;4908782;29;20449;-95
2021/06/10 10:21:35;;;;;;;13.63;12.63;;;23.00;99.90;;;;;;4908066;29;20457;-96
2021/06/10 10:24:04;;;;;;;13.27;12.27;;;23.10;99.90;;;;;;4907456;29;20204;-96
2021/06/10 10:26:31;;;;;;;11.97;11.17;;;23.40;99.90;;;;;;4913376;29;20876;-96
2021/06/10 10:29:01;;;;;;;11.47;10.50;;;24.00;99.90;;;;;;4909722;29;21286;-96
2021/06/10 10:31:29;;;;;;;12.93;11.80;;;24.50;99.90;;;;;;4913118;29;20793;-96
2021/06/10 10:33:55;;;;;;;11.77;10.77;;;24.70;99.90;;;;;;4911327;29;20486;-96
2021/06/10 12:04:40;;;;;;;14.67;13.57;;;28.70;92.30;;;;;;4937466;26;20835;-96
2021/06/10 12:07:17;;;;;;;13.60;12.70;;;27.60;93.00;;;;;;4932590;29;20463;-96
2021/06/10 12:10:10;;;;;;;;;;;;;;;;;;;;;
2021/06/10 12:13:21;;;;;;;;;;;;;;;;;;;;;
2021/06/10 12:19:36;;;;;;;14.37;12.97;;;26.60;95.70;;;;;;4938637;29;20889;-96
2021/06/10 12:22:09;;;;;;;13.97;12.87;;;27.40;95.90;;;;;;4939033;29;20467;-96
2021/06/10 12:24:44;;;;;;;13.27;12.23;;;27.90;95.80;;;;;;4921012;29;20459;-96
2021/06/10 12:27:21;;;;;;;14.00;13.00;;;28.40;93.60;;;;;;4900894;29;20453;-95
2021/06/10 12:29:53;;;;;;;12.43;11.53;;;28.30;93.20;;;;;;4925891;29;20432;-96
2021/06/10 12:32:39;;;;;;;14.43;12.73;;;28.90;93.20;;;;;;4935508;29;20455;-96
2021/06/10 12:35:37;;;;;;;13.00;11.97;;;29.40;92.20;;;;;;4940961;29;20468;-96
2021/06/10 12:38:03;;;;;;;14.80;13.70;;;30.00;90.80;;;;;;4911800;29;20208;-96
2021/06/10 12:40:45;;;;;;;14.50;13.30;;;29.80;91.20;;;;;;4909376;28;20451;-96
2021/06/10 12:43:24;;;;;;;16.13;14.90;;;29.30;91.40;;;;;;4915260;29;20467;-96
2021/06/10 12:46:04;;;;;;;15.70;14.40;;;28.80;92.90;;;;;;4910592;28;20451;-96
2021/06/10 12:48:44;;;;;;;17.47;16.13;;;28.70;93.90;;;;;;4907547;29;21143;-95
2021/06/10 12:51:26;;;;;;;15.60;14.40;;;28.90;92.00;;;;;;4916107;29;20519;-96
2021/06/10 12:53:58;;;;;;;14.80;13.80;;;29.40;93.70;;;;;;4918087;29;20471;-94
2021/06/10 12:56:35;;;;;;;20.63;19.07;;;29.50;93.50;;;;;;4920457;29;20483;-96
2021/06/10 12:59:05;;;;;;;16.40;15.23;;;29.60;92.30;;;;;;4904813;29;20443;-94
2021/06/10 13:01:31;;;;;;;14.30;13.30;;;29.90;92.50;;;;;;4918614;29;20645;-95
2021/06/10 13:03:57;;;;;;;14.47;13.40;;;30.60;92.40;;;;;;4916344;29;20505;-95
2021/06/10 13:06:28;;;;;;;15.07;14.00;;;31.10;90.50;;;;;;4910202;29;20490;-94
2021/06/10 13:08:57;;;;;;;14.10;13.10;;;30.90;90.20;;;;;;4915664;29;20200;-95
2021/06/10 13:11:23;;;;;;;13.57;12.70;;;30.30;86.50;;;;;;4906586;29;20491;-95
2021/06/10 13:13:50;;;;;;;14.10;13.10;;;29.30;87.40;;;;;;4917239;29;20504;-92
2021/06/10 13:16:24;;;;;;;15.40;14.30;;;28.20;90.30;;;;;;4912556;29;20247;-93
2021/06/10 13:18:50;;;;;;;18.07;16.60;;;26.40;93.80;;;;;;4915195;29;20506;-93
2021/06/10 13:21:18;;;;;;;20.00;18.00;;;25.50;98.00;;;;;;4920506;29;20736;-95
2021/06/10 13:23:54;;;;;;;20.80;18.90;;;24.60;99.90;;;;;;4916209;29;20462;-93
2021/06/10 13:26:20;;;;;;;22.63;20.17;;;23.50;99.90;;;;;;4906202;29;20473;-92
2021/06/10 13:29:00;;;;;;;19.97;17.97;;;22.40;99.90;;;;;;4891683;29;21069;-91
2021/06/10 13:31:30;;;;;;;17.10;15.47;;;21.60;99.90;;;;;;4915945;29;20287;-93
2021/06/10 13:34:04;;;;;;;17.23;15.83;;;21.50;99.90;;;;;;4899288;29;20503;-91
2021/06/10 13:36:32;;;;;;;13.70;10.73;;;21.50;99.90;;;;;;4878359;28;20505;-90
2021/06/10 13:39:00;;;;;;;12.80;11.50;;;20.90;99.90;;;;;;4833601;29;20995;-92
2021/06/10 13:41:28;;;;;;;12.90;8.93;;;20.10;99.90;;;;;;4840674;29;20490;-93
2021/06/10 13:43:55;;;;;;;13.70;8.60;;;20.10;99.90;;;;;;4842474;29;20474;-94
2021/06/10 13:46:21;;;;;;;13.30;10.00;;;20.30;99.90;;;;;;4856400;29;20444;-92
2021/06/10 13:51:22;;;;;;;12.17;9.70;;;20.20;99.90;;;;;;5029060;23;20509;-94
2021/06/10 13:53:50;;;;;;;12.87;10.80;;;19.90;99.90;;;;;;4848057;29;20464;-94
2021/06/10 13:56:17;;;;;;;13.83;12.40;;;19.50;99.90;;;;;;4861515;29;20683;-95
2021/06/10 13:58:44;;;;;;;18.83;17.10;;;19.50;99.90;;;;;;4864986;29;20463;-94
2021/06/10 14:01:10;;;;;;;17.57;15.90;;;19.20;99.90;;;;;;4857235;29;20471;-95
2021/06/10 14:03:35;;;;;;;17.07;15.33;;;19.10;99.90;;;;;;4871237;29;20891;-96
2021/06/10 14:06:04;;;;;;;16.33;14.87;;;19.20;99.90;;;;;;4888286;29;20200;-94
2021/06/10 14:08:32;;;;;;;14.77;13.33;;;19.50;99.90;;;;;;4888178;29;20660;-93
2021/06/10 14:10:58;;;;;;;16.53;14.93;;;19.50;99.90;;;;;;4853092;29;20477;-94
2021/06/10 14:13:26;;;;;;;16.23;14.70;;;18.80;99.90;;;;;;4866580;29;20462;-93
2021/06/10 14:42:40;;;;;;;13.00;11.80;;;19.80;99.90;;;;;;5121720;23;20505;-95
2021/06/10 14:45:07;;;;;;;13.17;12.00;;;19.90;99.90;;;;;;4877010;29;20489;-94
2021/06/10 14:47:33;;;;;;;14.23;13.03;;;20.20;99.90;;;;;;4856291;29;20451;-92
2021/06/10 14:49:59;;;;;;;17.00;15.30;;;20.50;99.90;;;;;;4861187;29;20459;-93
2021/06/10 14:52:25;;;;;;;16.57;15.17;;;20.60;99.90;;;;;;4864553;29;20860;-93
2021/06/10 14:54:51;;;;;;;14.57;13.40;;;20.30;99.90;;;;;;4868596;29;20455;-93
2021/06/10 14:57:17;;;;;;;14.17;12.97;;;20.30;99.90;;;;;;4859750;29;20849;-93
2021/06/10 14:59:42;;;;;;;15.23;13.93;;;20.30;99.90;;;;;;4860523;29;20522;-92
2021/06/10 15:02:09;;;;;;;13.73;12.70;;;20.00;99.90;;;;;;4860464;29;20575;-91
2021/06/10 15:04:34;;;;;;;14.50;13.20;;;19.80;99.90;;;;;;4859251;29;20232;-90
2021/06/10 15:07:00;;;;;;;13.90;12.67;;;19.90;99.90;;;;;;4857239;29;20529;-90
2021/06/10 15:09:26;;;;;;;13.67;12.50;;;20.20;99.90;;;;;;4860115;29;20200;-91
2021/06/10 15:12:02;;;;;;;15.20;13.73;;;20.30;99.90;;;;;;4854333;29;20248;-92
2021/06/10 15:14:27;;;;;;;15.80;13.80;;;20.20;99.90;;;;;;4870630;29;20200;-90
2021/06/10 15:16:53;;;;;;;16.83;15.20;;;20.20;99.90;;;;;;4858573;29;20903;-89